Time;durP1;ratioP1;P1;durP2;ratioP2;P2;SDS_P1;SDS_P2;PMS_P1;PMS_P2;Temp;Humidity;BMP_temperature;BMP_pressure;BME280_temperature;BME280_humidity;BME280_pressure;Samples;Min_cycle;Max_cycle;Signal;HPM_P1;HPM_P2
2023/08/28 07:13:01;;;;;;;;;5.00;4.00;;;;;;;;5316618;22;46439;-73
2023/08/28 07:15:29;;;;;;;;;4.67;3.00;;;;;;;;5051019;28;45442;-74
2023/08/28 07:17:55;;;;;;;;;4.67;4.00;;;;;;;;5013261;28;45569;-73
2023/08/28 07:20:21;;;;;;;;;5.00;4.00;;;;;;;;5017740;28;46021;-76
2023/08/28 07:22:46;;;;;;;;;3.33;3.33;;;;;;;;5016386;28;45419;-76
2023/08/28 07:25:11;;;;;;;;;4.33;3.00;;;;;;;;5017951;28;45366;-76
2023/08/28 07:27:37;;;;;;;;;5.00;4.00;;;;;;;;5007523;28;45266;-76
2023/08/28 07:30:04;;;;;;;;;3.67;3.67;;;;;;;;5010218;28;45809;-75
2023/08/28 07:32:29;;;;;;;;;4.67;4.33;;;;;;;;5010560;28;45394;-75
2023/08/28 07:34:55;;;;;;;;;4.67;3.67;;;;;;;;5000703;28;45584;-75
2023/08/28 07:37:20;;;;;;;;;4.67;4.67;;;;;;;;5004244;28;45308;-75
2023/08/28 07:39:46;;;;;;;;;5.67;4.00;;;;;;;;5008242;28;45452;-75
2023/08/28 07:42:11;;;;;;;;;4.00;4.00;;;;;;;;5013644;28;45257;-76
2023/08/28 07:44:37;;;;;;;;;2.67;1.67;;;;;;;;5007616;28;45198;-75
2023/08/28 07:47:02;;;;;;;;;4.00;4.00;;;;;;;;5010725;28;46457;-76
2023/08/28 07:49:27;;;;;;;;;3.33;3.33;;;;;;;;5011317;28;46107;-75
2023/08/28 07:51:53;;;;;;;;;3.67;3.67;;;;;;;;5011712;28;45201;-75
2023/08/28 07:54:18;;;;;;;;;6.00;4.00;;;;;;;;5012892;28;45440;-76
2023/08/28 07:56:43;;;;;;;;;6.33;3.33;;;;;;;;5012025;28;45402;-76
2023/08/28 07:59:08;;;;;;;;;3.67;3.67;;;;;;;;5008916;28;46333;-75
2023/08/28 08:01:35;;;;;;;;;4.00;4.00;;;;;;;;5009518;28;45194;-75
2023/08/28 08:04:00;;;;;;;;;3.00;3.00;;;;;;;;5017192;28;45242;-75
2023/08/28 08:06:25;;;;;;;;;1.67;1.67;;;;;;;;5015380;28;45554;-76
2023/08/28 08:08:51;;;;;;;;;3.00;3.00;;;;;;;;5010894;28;45496;-77
2023/08/28 08:11:16;;;;;;;;;3.67;2.67;;;;;;;;5010039;28;45431;-76
2023/08/28 08:13:41;;;;;;;;;4.00;3.33;;;;;;;;5007324;28;45442;-75
2023/08/28 08:16:06;;;;;;;;;3.67;3.00;;;;;;;;5003553;28;45569;-75
2023/08/28 08:18:32;;;;;;;;;5.00;2.67;;;;;;;;5008540;28;46957;-76
2023/08/28 08:20:57;;;;;;;;;2.33;2.00;;;;;;;;5019774;28;45411;-76
2023/08/28 08:23:22;;;;;;;;;3.00;3.00;;;;;;;;5008857;28;45660;-76
2023/08/28 08:25:48;;;;;;;;;1.67;1.67;;;;;;;;5012281;28;45206;-76
2023/08/28 08:28:15;;;;;;;;;4.67;3.00;;;;;;;;5007353;28;46379;-76
2023/08/28 08:30:40;;;;;;;;;3.67;3.33;;;;;;;;5009899;28;45261;-75
2023/08/28 08:33:05;;;;;;;;;5.67;3.00;;;;;;;;5005966;28;45422;-75
2023/08/28 08:35:31;;;;;;;;;4.00;4.00;;;;;;;;5017871;28;45271;-75
2023/08/28 08:37:56;;;;;;;;;3.33;3.33;;;;;;;;5010328;28;45493;-76
2023/08/28 08:40:24;;;;;;;;;4.33;3.33;;;;;;;;5016583;28;45449;-74
2023/08/28 08:42:49;;;;;;;;;3.00;2.33;;;;;;;;5012546;28;45443;-75
2023/08/28 08:45:14;;;;;;;;;3.00;3.00;;;;;;;;5018013;28;45287;-76
2023/08/28 08:47:46;;;;;;;;;3.00;2.00;;;;;;;;5017205;28;47076;-75
2023/08/28 08:50:12;;;;;;;;;4.33;3.33;;;;;;;;5017840;28;45393;-78
2023/08/28 08:52:39;;;;;;;;;4.00;4.00;;;;;;;;5012116;28;44766;-74
2023/08/28 08:55:09;;;;;;;;;3.67;3.67;;;;;;;;5012102;28;45321;-74
2023/08/28 08:57:42;;;;;;;;;7.00;6.00;;;;;;;;5015440;28;48203;-75
2023/08/28 09:00:15;;;;;;;;;1.67;1.67;;;;;;;;5014540;28;45162;-76
2023/08/28 09:02:41;;;;;;;;;4.00;4.00;;;;;;;;5000482;28;45494;-74
2023/08/28 09:05:06;;;;;;;;;2.67;2.67;;;;;;;;5015525;28;45402;-75
2023/08/28 09:07:32;;;;;;;;;3.67;3.67;;;;;;;;5014098;28;45256;-75
2023/08/28 09:09:58;;;;;;;;;5.33;5.33;;;;;;;;5016815;28;45262;-75
2023/08/28 09:12:24;;;;;;;;;5.00;3.67;;;;;;;;5012385;28;45391;-74
2023/08/28 09:14:49;;;;;;;;;2.00;2.00;;;;;;;;5009955;28;45592;-73
2023/08/28 09:17:14;;;;;;;;;3.67;3.00;;;;;;;;5013404;28;45598;-73
2023/08/28 09:19:40;;;;;;;;;4.67;4.67;;;;;;;;5015973;28;45248;-74
2023/08/28 09:22:05;;;;;;;;;4.00;4.00;;;;;;;;5006382;28;45324;-72
2023/08/28 09:24:30;;;;;;;;;3.00;2.67;;;;;;;;5011935;28;45624;-73
2023/08/28 09:26:55;;;;;;;;;2.67;2.67;;;;;;;;5010876;28;45339;-74
2023/08/28 09:29:22;;;;;;;;;3.33;3.33;;;;;;;;5006051;28;45478;-74
2023/08/28 09:31:47;;;;;;;;;3.00;3.00;;;;;;;;5013120;28;45471;-72
2023/08/28 09:34:13;;;;;;;;;3.67;3.67;;;;;;;;5007745;28;45528;-73
2023/08/28 09:36:40;;;;;;;;;3.33;3.33;;;;;;;;5013993;28;45436;-73
2023/08/28 09:39:05;;;;;;;;;4.67;4.00;;;;;;;;5009330;28;45335;-73
2023/08/28 09:41:43;;;;;;;;;6.67;5.00;;;;;;;;5016311;28;45158;-73
2023/08/28 09:44:09;;;;;;;;;6.00;4.00;;;;;;;;5014757;28;45780;-74
2023/08/28 09:46:35;;;;;;;;;4.67;4.67;;;;;;;;5016213;28;46098;-77
2023/08/28 09:49:00;;;;;;;;;3.33;3.00;;;;;;;;5015406;28;45580;-76
2023/08/28 09:51:46;;;;;;;;;3.33;3.33;;;;;;;;5018867;28;45509;-76
2023/08/28 09:54:12;;;;;;;;;4.00;4.00;;;;;;;;5015920;28;46366;-76
2023/08/28 09:56:38;;;;;;;;;5.33;5.33;;;;;;;;5015735;28;45485;-75
2023/08/28 09:59:04;;;;;;;;;5.33;5.33;;;;;;;;5017652;28;45598;-76
2023/08/28 10:01:36;;;;;;;;;2.67;2.67;;;;;;;;5016962;28;45272;-77
2023/08/28 10:04:05;;;;;;;;;4.67;4.33;;;;;;;;5018431;28;45256;-76
2023/08/28 10:06:33;;;;;;;;;7.00;7.00;;;;;;;;5015087;28;47020;-76
2023/08/28 10:08:59;;;;;;;;;5.67;4.67;;;;;;;;5019777;28;45701;-76
2023/08/28 10:11:33;;;;;;;;;5.00;5.00;;;;;;;;5016615;28;45379;-76
2023/08/28 10:13:58;;;;;;;;;6.67;6.67;;;;;;;;5014355;28;46344;-75
2023/08/28 10:16:24;;;;;;;;;5.33;5.33;;;;;;;;5018027;28;46054;-75
2023/08/28 10:18:55;;;;;;;;;7.67;5.67;;;;;;;;5016262;28;45256;-75
2023/08/28 10:21:20;;;;;;;;;5.33;4.00;;;;;;;;5020787;28;45382;-75
2023/08/28 10:23:46;;;;;;;;;4.67;4.67;;;;;;;;5013535;28;45224;-75
2023/08/28 10:26:12;;;;;;;;;3.33;3.00;;;;;;;;5017272;28;46747;-75
2023/08/28 10:28:38;;;;;;;;;5.67;4.33;;;;;;;;5009793;28;45378;-74
2023/08/28 10:31:05;;;;;;;;;3.33;2.33;;;;;;;;5019714;28;45240;-75
2023/08/28 10:33:30;;;;;;;;;4.00;4.00;;;;;;;;5017393;28;45506;-75
2023/08/28 10:35:56;;;;;;;;;4.00;4.00;;;;;;;;5018622;28;48044;-73
2023/08/28 10:38:22;;;;;;;;;2.33;2.33;;;;;;;;5009942;28;45371;-75
2023/08/28 10:40:48;;;;;;;;;4.33;4.33;;;;;;;;5006711;28;45324;-74
2023/08/28 10:43:14;;;;;;;;;5.00;2.00;;;;;;;;5008809;28;45483;-74
2023/08/28 10:45:40;;;;;;;;;3.33;3.33;;;;;;;;5013280;28;46249;-73
2023/08/28 10:48:06;;;;;;;;;2.33;2.33;;;;;;;;5007816;28;45253;-75
2023/08/28 10:50:35;;;;;;;;;3.00;3.00;;;;;;;;5005537;28;45439;-72
2023/08/28 10:53:00;;;;;;;;;3.33;3.33;;;;;;;;5006306;28;45469;-73
2023/08/28 10:55:26;;;;;;;;;3.00;3.00;;;;;;;;5027611;28;47872;-74
2023/08/28 10:57:52;;;;;;;;;5.00;4.00;;;;;;;;5013420;28;45399;-73
2023/08/28 11:00:22;;;;;;;;;3.00;3.00;;;;;;;;5017355;28;45261;-73
2023/08/28 11:03:05;;;;;;;;;3.00;3.00;;;;;;;;5015559;28;45333;-75
2023/08/28 11:05:30;;;;;;;;;7.00;4.00;;;;;;;;5018659;28;45316;-74
2023/08/28 11:07:56;;;;;;;;;3.00;3.00;;;;;;;;5012991;28;45328;-75
2023/08/28 11:10:21;;;;;;;;;3.00;3.00;;;;;;;;5019738;28;45304;-74
2023/08/28 11:12:52;;;;;;;;;6.00;3.33;;;;;;;;5012464;28;46044;-74
2023/08/28 11:15:24;;;;;;;;;5.00;3.33;;;;;;;;5011687;28;45299;-76
2023/08/28 11:18:09;;;;;;;;;2.67;2.67;;;;;;;;5012937;28;45842;-73
2023/08/28 11:20:38;;;;;;;;;3.00;3.00;;;;;;;;5020251;28;45427;-74
2023/08/28 11:23:03;;;;;;;;;2.67;2.67;;;;;;;;5017226;28;45474;-75
2023/08/28 11:25:39;;;;;;;;;3.50;2.00;;;;;;;;5017883;28;47500;-74
2023/08/28 11:28:22;;;;;;;;;3.00;3.00;;;;;;;;5012730;28;45383;-75
2023/08/28 11:30:47;;;;;;;;;2.50;2.50;;;;;;;;5015678;28;45273;-75
2023/08/28 11:33:13;;;;;;;;;3.00;2.00;;;;;;;;5009352;28;45555;-74
2023/08/28 11:35:38;;;;;;;;;2.25;2.25;;;;;;;;5011197;28;47031;-75
2023/08/28 11:38:03;;;;;;;;;3.75;3.75;;;;;;;;5011611;28;45415;-72
2023/08/28 11:40:28;;;;;;;;;5.25;2.00;;;;;;;;5005099;28;45233;-73
2023/08/28 11:43:06;;;;;;;;;2.25;2.25;;;;;;;;5012612;28;45398;-73
2023/08/28 11:45:32;;;;;;;;;3.00;2.00;;;;;;;;5005702;28;47152;-73
2023/08/28 11:48:01;;;;;;;;;2.00;2.00;;;;;;;;5015130;28;45268;-73
2023/08/28 11:50:26;;;;;;;;;2.25;2.00;;;;;;;;5017865;28;45323;-73
2023/08/28 11:52:52;;;;;;;;;2.50;1.75;;;;;;;;5016889;28;46829;-73
2023/08/28 11:55:19;;;;;;;;;3.00;1.75;;;;;;;;5017587;28;47206;-73
2023/08/28 11:57:44;;;;;;;;;4.00;2.00;;;;;;;;5014945;28;45223;-73
2023/08/28 12:00:11;;;;;;;;;2.00;2.00;;;;;;;;5003307;28;45221;-75
2023/08/28 12:02:37;;;;;;;;;2.00;2.00;;;;;;;;5015633;28;45262;-73
2023/08/28 12:05:04;;;;;;;;;2.25;2.25;;;;;;;;5009225;28;47127;-76
2023/08/28 12:07:29;;;;;;;;;5.75;3.00;;;;;;;;5012240;28;45565;-75
2023/08/28 12:09:55;;;;;;;;;1.75;1.75;;;;;;;;5024616;28;45633;-75
2023/08/28 12:12:20;;;;;;;;;3.00;2.00;;;;;;;;5011295;28;45551;-74
2023/08/28 12:14:46;;;;;;;;;3.00;1.00;;;;;;;;5001920;28;45440;-74
2023/08/28 12:17:15;;;;;;;;;2.50;2.25;;;;;;;;5009164;28;45485;-76
2023/08/28 12:19:41;;;;;;;;;2.00;2.00;;;;;;;;5005503;28;45297;-73
2023/08/28 12:22:08;;;;;;;;;1.25;1.00;;;;;;;;5005116;28;45231;-73
2023/08/28 12:24:38;;;;;;;;;1.20;1.20;;;;;;;;5005103;28;45825;-74
2023/08/28 12:27:04;;;;;;;;;1.00;1.00;;;;;;;;5001555;28;45347;-76
2023/08/28 12:29:30;;;;;;;;;1.60;1.00;;;;;;;;5015409;28;46175;-76
2023/08/28 12:31:55;;;;;;;;;2.00;2.00;;;;;;;;5010198;28;45146;-77
2023/08/28 12:34:26;;;;;;;;;1.00;1.00;;;;;;;;5014228;28;46295;-76
2023/08/28 12:36:52;;;;;;;;;2.00;2.00;;;;;;;;5013845;28;45469;-76
2023/08/28 12:39:20;;;;;;;;;2.00;2.00;;;;;;;;5011848;28;45446;-76
2023/08/28 12:41:53;;;;;;;;;2.75;2.50;;;;;;;;5010918;28;45419;-76
2023/08/28 12:44:18;;;;;;;;;1.40;1.40;;;;;;;;5012407;28;46404;-76
2023/08/28 12:46:43;;;;;;;;;3.00;1.50;;;;;;;;5010449;28;45455;-76
2023/08/28 12:49:11;;;;;;;;;2.00;2.00;;;;;;;;5010752;28;45714;-76
2023/08/28 12:51:36;;;;;;;;;2.25;2.25;;;;;;;;5009100;28;45571;-78
2023/08/28 12:54:01;;;;;;;;;1.00;1.00;;;;;;;;5010962;28;46177;-76
2023/08/28 12:56:26;;;;;;;;;1.00;1.00;;;;;;;;5010778;28;45253;-75
2023/08/28 12:58:51;;;;;;;;;1.00;1.00;;;;;;;;5009863;28;45525;-74
2023/08/28 13:01:17;;;;;;;;;2.00;2.00;;;;;;;;5014251;28;45332;-74
2023/08/28 13:03:42;;;;;;;;;3.00;2.00;;;;;;;;5010524;28;45528;-75
2023/08/28 13:06:08;;;;;;;;;3.00;2.00;;;;;;;;5013821;28;45175;-75
2023/08/28 13:08:33;;;;;;;;;2.25;1.50;;;;;;;;5008666;28;45228;-74
2023/08/28 13:10:58;;;;;;;;;2.00;1.00;;;;;;;;5005698;28;46801;-75
2023/08/28 13:13:26;;;;;;;;;1.75;1.75;;;;;;;;5007124;28;45429;-75
2023/08/28 13:15:52;;;;;;;;;0.20;0.20;;;;;;;;5023072;28;45782;-75
2023/08/28 13:18:17;;;;;;;;;2.00;2.00;;;;;;;;5018257;28;45285;-75
2023/08/28 13:20:42;;;;;;;;;1.00;1.00;;;;;;;;5012210;28;45344;-77
2023/08/28 13:23:07;;;;;;;;;2.00;2.00;;;;;;;;5008024;28;46290;-75
2023/08/28 13:25:32;;;;;;;;;1.00;1.00;;;;;;;;5008041;28;45296;-76
2023/08/28 13:27:57;;;;;;;;;0.50;0.50;;;;;;;;5011582;28;45558;-75
2023/08/28 13:30:23;;;;;;;;;2.25;1.25;;;;;;;;5019986;28;47392;-76
2023/08/28 13:32:48;;;;;;;;;1.00;1.00;;;;;;;;5009001;28;45647;-76
2023/08/28 13:35:14;;;;;;;;;2.00;2.00;;;;;;;;5019651;28;45391;-75
2023/08/28 13:37:39;;;;;;;;;1.00;1.00;;;;;;;;5009473;28;44786;-76
2023/08/28 13:40:06;;;;;;;;;2.50;1.00;;;;;;;;5016306;28;45198;-77
2023/08/28 13:42:32;;;;;;;;;2.00;2.00;;;;;;;;5009083;28;47218;-76
2023/08/28 13:44:58;;;;;;;;;2.40;1.40;;;;;;;;5014797;28;45355;-77
2023/08/28 13:47:23;;;;;;;;;3.25;1.25;;;;;;;;5010380;28;45544;-76
2023/08/28 13:49:48;;;;;;;;;1.50;1.00;;;;;;;;5013880;28;45333;-75
2023/08/28 13:52:13;;;;;;;;;1.00;1.00;;;;;;;;5012971;28;45441;-76
2023/08/28 13:54:38;;;;;;;;;0.25;0.25;;;;;;;;5016690;28;45282;-75
2023/08/28 13:57:04;;;;;;;;;1.00;1.00;;;;;;;;5018673;28;45382;-78
2023/08/28 13:59:29;;;;;;;;;2.00;2.00;;;;;;;;5018452;28;45496;-76
2023/08/28 14:01:54;;;;;;;;;2.50;0.25;;;;;;;;5017777;28;45217;-77
2023/08/28 14:04:19;;;;;;;;;2.50;2.00;;;;;;;;5006868;28;45431;-76
2023/08/28 14:06:44;;;;;;;;;1.75;1.00;;;;;;;;5009805;28;45383;-77
2023/08/28 14:09:09;;;;;;;;;0.00;0.00;;;;;;;;5006370;28;45575;-75
2023/08/28 14:11:35;;;;;;;;;1.00;1.00;;;;;;;;5014329;28;47149;-76
2023/08/28 14:14:00;;;;;;;;;1.25;1.25;;;;;;;;5010013;28;45411;-77
2023/08/28 14:16:25;;;;;;;;;2.00;2.00;;;;;;;;5002962;28;45352;-76
2023/08/28 14:18:50;;;;;;;;;1.00;1.00;;;;;;;;5007895;28;46917;-76
2023/08/28 14:21:16;;;;;;;;;1.00;1.00;;;;;;;;5025005;28;45480;-75
2023/08/28 14:23:42;;;;;;;;;1.50;1.50;;;;;;;;5015527;28;45356;-77
2023/08/28 14:26:08;;;;;;;;;1.00;1.00;;;;;;;;5018798;28;45335;-78
2023/08/28 14:28:34;;;;;;;;;2.50;1.00;;;;;;;;5015171;28;45481;-76
2023/08/28 14:30:59;;;;;;;;;1.00;1.00;;;;;;;;5020692;28;45335;-73
2023/08/28 14:33:25;;;;;;;;;1.75;1.75;;;;;;;;5016095;28;45557;-74
2023/08/28 14:35:50;;;;;;;;;2.25;2.00;;;;;;;;5017776;28;45294;-73
2023/08/28 14:38:15;;;;;;;;;2.00;0.75;;;;;;;;5010907;28;45580;-75
2023/08/28 14:40:41;;;;;;;;;1.75;1.75;;;;;;;;5028551;28;47366;-78
2023/08/28 14:43:06;;;;;;;;;1.50;1.50;;;;;;;;5012574;28;45381;-79
2023/08/28 14:45:31;;;;;;;;;1.25;1.00;;;;;;;;5015344;28;45168;-78
2023/08/28 14:47:57;;;;;;;;;2.00;1.00;;;;;;;;5014598;28;45333;-78
2023/08/28 14:50:23;;;;;;;;;2.25;1.00;;;;;;;;5016224;28;45111;-79
2023/08/28 14:52:48;;;;;;;;;2.50;1.00;;;;;;;;5014173;28;45301;-80
2023/08/28 14:55:15;;;;;;;;;1.25;1.00;;;;;;;;5017789;28;45276;-78
2023/08/28 14:57:40;;;;;;;;;1.00;1.00;;;;;;;;5016157;28;45395;-79
2023/08/28 15:00:07;;;;;;;;;2.00;2.00;;;;;;;;5018644;28;48106;-78
2023/08/28 15:02:32;;;;;;;;;1.00;1.00;;;;;;;;5018032;28;45494;-78
2023/08/28 15:04:57;;;;;;;;;1.25;1.25;;;;;;;;5020013;28;45229;-78
2023/08/28 15:07:22;;;;;;;;;1.00;1.00;;;;;;;;5017480;28;45523;-79
2023/08/28 15:09:48;;;;;;;;;0.00;0.00;;;;;;;;5019966;28;45553;-80
2023/08/28 15:12:13;;;;;;;;;0.25;0.25;;;;;;;;5016326;28;45515;-80
2023/08/28 15:14:38;;;;;;;;;1.75;1.75;;;;;;;;5010371;28;45419;-79
2023/08/28 15:17:04;;;;;;;;;0.25;0.25;;;;;;;;5016030;28;45253;-79
2023/08/28 15:19:29;;;;;;;;;1.00;1.00;;;;;;;;5013735;28;45399;-78
2023/08/28 15:21:54;;;;;;;;;1.50;1.50;;;;;;;;5020294;28;45419;-78
2023/08/28 15:24:19;;;;;;;;;4.50;3.00;;;;;;;;5014964;28;45426;-78
2023/08/28 15:26:44;;;;;;;;;2.50;2.50;;;;;;;;5017085;28;45576;-78
2023/08/28 15:29:10;;;;;;;;;3.00;3.00;;;;;;;;5023263;28;45268;-78
2023/08/28 15:31:35;;;;;;;;;1.50;1.50;;;;;;;;5017369;28;45492;-79
2023/08/28 15:34:01;;;;;;;;;1.50;1.00;;;;;;;;5009490;28;45430;-79
2023/08/28 15:36:26;;;;;;;;;1.00;1.00;;;;;;;;5014402;28;47194;-78
2023/08/28 15:38:51;;;;;;;;;2.50;1.00;;;;;;;;5006804;28;47135;-78
2023/08/28 15:41:17;;;;;;;;;2.00;2.00;;;;;;;;5016933;28;45170;-79
2023/08/28 15:43:43;;;;;;;;;1.00;1.00;;;;;;;;5010956;28;45324;-78
2023/08/28 15:46:08;;;;;;;;;3.50;3.00;;;;;;;;5016505;28;46219;-78
2023/08/28 15:48:33;;;;;;;;;1.75;1.75;;;;;;;;5022613;28;47245;-78
2023/08/28 15:51:03;;;;;;;;;2.25;2.25;;;;;;;;5019181;28;45456;-78
2023/08/28 15:53:28;;;;;;;;;2.00;2.00;;;;;;;;5013902;28;45268;-78
2023/08/28 15:55:54;;;;;;;;;2.00;2.00;;;;;;;;5016320;28;46078;-76
2023/08/28 15:58:22;;;;;;;;;2.25;2.25;;;;;;;;5010253;28;47995;-78
2023/08/28 16:00:48;;;;;;;;;1.75;1.75;;;;;;;;5016853;28;45381;-78
2023/08/28 16:03:14;;;;;;;;;2.00;2.00;;;;;;;;5015333;28;45885;-78
2023/08/28 16:05:39;;;;;;;;;0.00;0.00;;;;;;;;5014094;28;45397;-77
2023/08/28 16:08:07;;;;;;;;;1.00;1.00;;;;;;;;5014567;28;45354;-79
2023/08/28 16:10:32;;;;;;;;;2.25;2.25;;;;;;;;5015102;28;45328;-78
2023/08/28 16:12:57;;;;;;;;;4.00;0.75;;;;;;;;5012409;28;45627;-78
2023/08/28 16:15:23;;;;;;;;;2.00;2.00;;;;;;;;5010630;28;46698;-79
2023/08/28 16:17:48;;;;;;;;;4.50;2.25;;;;;;;;5010446;28;46854;-75
2023/08/28 16:20:13;;;;;;;;;2.00;2.00;;;;;;;;5007917;28;45323;-76
2023/08/28 16:22:39;;;;;;;;;1.25;1.25;;;;;;;;5014040;28;45424;-78
2023/08/28 16:25:05;;;;;;;;;3.25;2.00;;;;;;;;4999338;28;45260;-77
2023/08/28 16:27:31;;;;;;;;;1.50;1.00;;;;;;;;5003626;28;45458;-77
2023/08/28 16:29:57;;;;;;;;;1.00;1.00;;;;;;;;5005633;28;45467;-76
2023/08/28 16:32:22;;;;;;;;;2.00;2.00;;;;;;;;5022192;28;45529;-76
2023/08/28 16:34:47;;;;;;;;;2.75;2.00;;;;;;;;5016801;28;45199;-78
2023/08/28 16:37:12;;;;;;;;;0.25;0.25;;;;;;;;5009194;28;46287;-76
2023/08/28 16:39:38;;;;;;;;;0.75;0.75;;;;;;;;5016986;28;45424;-75
2023/08/28 16:42:04;;;;;;;;;1.25;1.25;;;;;;;;5013210;28;45301;-76
2023/08/28 16:44:30;;;;;;;;;2.50;2.00;;;;;;;;5013870;28;45217;-75
2023/08/28 16:46:55;;;;;;;;;3.00;1.25;;;;;;;;5006865;28;45435;-79
2023/08/28 16:49:20;;;;;;;;;2.00;2.00;;;;;;;;5015412;28;45405;-78
2023/08/28 16:51:46;;;;;;;;;1.50;1.50;;;;;;;;5017623;28;45446;-78
2023/08/28 16:54:11;;;;;;;;;1.00;1.00;;;;;;;;5014229;28;45323;-78
2023/08/28 16:56:38;;;;;;;;;2.75;2.75;;;;;;;;5012110;28;48018;-78
2023/08/28 16:59:03;;;;;;;;;3.50;3.50;;;;;;;;5017761;28;45312;-77
2023/08/28 17:01:28;;;;;;;;;2.00;2.00;;;;;;;;5012185;28;45434;-77
2023/08/28 17:03:53;;;;;;;;;1.50;1.50;;;;;;;;5018166;28;45810;-76
2023/08/28 17:06:19;;;;;;;;;2.25;2.25;;;;;;;;5018202;28;45306;-76
2023/08/28 17:08:44;;;;;;;;;0.75;0.75;;;;;;;;5018556;28;45946;-77
2023/08/28 17:11:09;;;;;;;;;2.00;2.00;;;;;;;;5018546;28;45351;-79
2023/08/28 17:13:35;;;;;;;;;1.00;1.00;;;;;;;;5006547;28;45639;-77
2023/08/28 17:16:00;;;;;;;;;2.00;2.00;;;;;;;;5011838;28;45359;-78
2023/08/28 17:18:25;;;;;;;;;1.75;1.00;;;;;;;;5016268;28;45316;-77
2023/08/28 17:20:51;;;;;;;;;1.50;1.50;;;;;;;;5014973;28;45199;-76
2023/08/28 17:23:16;;;;;;;;;2.75;2.75;;;;;;;;5011983;28;44993;-77
2023/08/28 17:25:42;;;;;;;;;3.00;2.00;;;;;;;;5015828;28;46284;-77
2023/08/28 17:28:09;;;;;;;;;1.25;1.25;;;;;;;;5013534;28;45206;-78
2023/08/28 17:30:34;;;;;;;;;1.75;1.75;;;;;;;;5019517;28;45398;-79
2023/08/28 17:32:59;;;;;;;;;1.00;1.00;;;;;;;;5011919;28;45389;-77
2023/08/28 17:35:24;;;;;;;;;1.00;1.00;;;;;;;;5013106;28;45248;-79
2023/08/28 17:37:50;;;;;;;;;1.75;1.75;;;;;;;;5012422;28;45646;-80
2023/08/28 17:40:15;;;;;;;;;2.00;0.50;;;;;;;;5013054;28;45340;-78
2023/08/28 17:42:40;;;;;;;;;1.00;1.00;;;;;;;;5012209;28;45569;-76
2023/08/28 17:45:06;;;;;;;;;2.00;1.00;;;;;;;;5014574;28;47504;-79
2023/08/28 17:47:31;;;;;;;;;2.00;1.00;;;;;;;;5015377;28;45312;-78
2023/08/28 17:49:57;;;;;;;;;0.00;0.00;;;;;;;;5012928;28;45354;-79
2023/08/28 17:52:24;;;;;;;;;1.00;1.00;;;;;;;;5015540;28;45240;-78
2023/08/28 17:54:50;;;;;;;;;3.00;2.00;;;;;;;;5010401;28;47156;-79
2023/08/28 17:57:15;;;;;;;;;2.00;2.00;;;;;;;;5013577;28;45528;-79
2023/08/28 17:59:41;;;;;;;;;0.75;0.75;;;;;;;;5009183;28;45365;-79
2023/08/28 18:02:06;;;;;;;;;1.00;1.00;;;;;;;;5017016;28;45274;-78
2023/08/28 18:04:31;;;;;;;;;1.00;1.00;;;;;;;;5006940;28;46827;-80
2023/08/28 18:06:57;;;;;;;;;1.00;1.00;;;;;;;;5011944;28;45375;-76
2023/08/28 18:09:22;;;;;;;;;3.25;3.00;;;;;;;;5007661;28;45419;-78
2023/08/28 18:11:48;;;;;;;;;2.00;2.00;;;;;;;;5009921;28;45432;-79
2023/08/28 18:14:13;;;;;;;;;6.00;5.00;;;;;;;;5003684;28;45217;-78
2023/08/28 18:16:39;;;;;;;;;3.00;3.00;;;;;;;;5017339;28;45281;-77
2023/08/28 18:19:04;;;;;;;;;3.00;3.00;;;;;;;;5005043;28;45397;-76
2023/08/28 18:21:29;;;;;;;;;2.00;2.00;;;;;;;;5008955;28;46269;-75
2023/08/28 18:23:55;;;;;;;;;4.00;2.00;;;;;;;;5009297;28;45347;-76
2023/08/28 18:26:20;;;;;;;;;1.00;1.00;;;;;;;;5005704;28;45594;-78
2023/08/28 18:28:46;;;;;;;;;2.67;2.67;;;;;;;;5022941;28;44762;-77
2023/08/28 18:31:11;;;;;;;;;1.00;1.00;;;;;;;;5024590;28;45379;-77
2023/08/28 18:33:36;;;;;;;;;2.00;2.00;;;;;;;;5010026;28;45290;-76
2023/08/28 18:36:03;;;;;;;;;1.67;1.00;;;;;;;;5017332;28;45223;-77
2023/08/28 18:38:29;;;;;;;;;3.67;3.67;;;;;;;;5009717;28;45428;-78
2023/08/28 18:40:54;;;;;;;;;1.00;1.00;;;;;;;;5016759;28;45247;-78
2023/08/28 18:43:19;;;;;;;;;5.00;3.00;;;;;;;;5017109;28;47128;-77
2023/08/28 18:45:45;;;;;;;;;3.67;1.33;;;;;;;;5017626;28;45248;-77
2023/08/28 18:48:11;;;;;;;;;2.00;2.00;;;;;;;;5015576;28;45419;-77
2023/08/28 18:50:40;;;;;;;;;0.67;0.67;;;;;;;;5017516;28;45217;-75
2023/08/28 18:53:06;;;;;;;;;1.00;1.00;;;;;;;;5016391;28;45403;-76
2023/08/28 18:55:31;;;;;;;;;2.00;2.00;;;;;;;;5027405;28;45452;-77
2023/08/28 18:57:57;;;;;;;;;1.00;1.00;;;;;;;;5017685;28;45257;-77
2023/08/28 19:00:23;;;;;;;;;1.00;1.00;;;;;;;;5017677;28;45339;-76
2023/08/28 19:02:48;;;;;;;;;1.00;1.00;;;;;;;;5017203;28;45376;-76
2023/08/28 19:05:13;;;;;;;;;12.33;12.33;;;;;;;;5018814;28;45248;-77
2023/08/28 19:07:40;;;;;;;;;3.67;3.67;;;;;;;;5016709;28;45317;-76
2023/08/28 19:10:07;;;;;;;;;1.67;1.67;;;;;;;;5019717;28;45454;-77
2023/08/28 19:12:32;;;;;;;;;2.00;2.00;;;;;;;;5013160;28;45842;-76
2023/08/28 19:14:57;;;;;;;;;2.00;2.00;;;;;;;;5014225;28;45400;-77
2023/08/28 19:17:22;;;;;;;;;1.67;1.67;;;;;;;;5013577;28;45334;-77
2023/08/28 19:19:47;;;;;;;;;2.67;1.67;;;;;;;;5022495;28;45150;-76
2023/08/28 19:22:13;;;;;;;;;2.00;1.00;;;;;;;;5022376;28;47142;-77
2023/08/28 19:24:38;;;;;;;;;2.00;1.33;;;;;;;;5015671;28;45226;-77
2023/08/28 19:27:03;;;;;;;;;2.00;2.00;;;;;;;;5013827;28;45289;-77
2023/08/28 19:29:29;;;;;;;;;3.33;2.33;;;;;;;;5015007;28;45364;-78
2023/08/28 19:31:54;;;;;;;;;1.00;1.00;;;;;;;;5015254;28;46513;-77
2023/08/28 19:34:19;;;;;;;;;1.00;1.00;;;;;;;;5016783;28;45346;-77
2023/08/28 19:36:44;;;;;;;;;1.33;1.33;;;;;;;;5016664;28;45229;-77
2023/08/28 19:39:09;;;;;;;;;0.67;0.67;;;;;;;;5017960;28;45264;-77
2023/08/28 19:41:35;;;;;;;;;1.00;1.00;;;;;;;;5017675;28;45548;-78
2023/08/28 19:44:00;;;;;;;;;0.67;0.67;;;;;;;;5019333;28;45381;-78
2023/08/28 19:46:25;;;;;;;;;0.67;0.67;;;;;;;;5017876;28;44754;-77
2023/08/28 19:48:51;;;;;;;;;1.67;0.67;;;;;;;;5013206;28;45351;-77
2023/08/28 19:51:16;;;;;;;;;2.67;1.00;;;;;;;;5017708;28;46451;-77
2023/08/28 19:53:42;;;;;;;;;1.00;1.00;;;;;;;;5014276;28;45348;-77
2023/08/28 19:56:07;;;;;;;;;1.00;1.00;;;;;;;;5018757;28;45339;-78
2023/08/28 19:58:33;;;;;;;;;3.67;2.67;;;;;;;;5006773;28;45407;-78
2023/08/28 20:00:59;;;;;;;;;2.67;2.00;;;;;;;;5017237;28;46972;-79
2023/08/28 20:03:24;;;;;;;;;0.67;0.67;;;;;;;;5008133;28;45430;-78
2023/08/28 20:05:49;;;;;;;;;1.67;1.67;;;;;;;;5019128;28;45371;-80
2023/08/28 20:08:14;;;;;;;;;0.67;0.67;;;;;;;;5016845;28;45380;-79
2023/08/28 20:10:40;;;;;;;;;1.67;1.00;;;;;;;;5018584;28;45619;-80
2023/08/28 20:13:05;;;;;;;;;1.00;1.00;;;;;;;;5019399;28;45372;-80
2023/08/28 20:15:30;;;;;;;;;2.33;1.67;;;;;;;;5020524;28;45430;-78
2023/08/28 20:17:55;;;;;;;;;0.67;0.67;;;;;;;;5013041;28;45360;-79
2023/08/28 20:20:20;;;;;;;;;0.67;0.67;;;;;;;;5024922;28;45298;-80
2023/08/28 20:22:46;;;;;;;;;1.33;1.33;;;;;;;;5016601;28;45283;-80
2023/08/28 20:25:11;;;;;;;;;0.00;0.00;;;;;;;;5009894;28;45395;-80
2023/08/28 20:27:37;;;;;;;;;1.33;1.33;;;;;;;;5010835;28;45222;-79
2023/08/28 20:30:04;;;;;;;;;2.67;1.67;;;;;;;;5010162;28;45614;-80
2023/08/28 20:32:29;;;;;;;;;1.67;1.67;;;;;;;;5013635;28;45431;-80
2023/08/28 20:34:55;;;;;;;;;1.67;0.67;;;;;;;;5017459;28;45299;-80
2023/08/28 20:37:20;;;;;;;;;3.00;2.33;;;;;;;;5014714;28;45657;-80
2023/08/28 20:39:46;;;;;;;;;2.00;2.00;;;;;;;;5013223;28;45301;-80
2023/08/28 20:42:11;;;;;;;;;1.67;0.67;;;;;;;;5013481;28;45492;-80
2023/08/28 20:44:37;;;;;;;;;2.33;1.67;;;;;;;;5016439;28;45291;-79
2023/08/28 20:47:03;;;;;;;;;1.00;1.00;;;;;;;;5014994;28;45311;-79
2023/08/28 20:49:29;;;;;;;;;4.67;4.67;;;;;;;;5018132;28;46342;-78
2023/08/28 20:51:54;;;;;;;;;2.67;2.67;;;;;;;;5015009;28;45328;-79
2023/08/28 20:54:19;;;;;;;;;2.67;2.67;;;;;;;;5016589;28;45216;-79
2023/08/28 20:56:45;;;;;;;;;2.67;2.67;;;;;;;;5013921;28;45500;-79
2023/08/28 20:59:10;;;;;;;;;1.33;1.33;;;;;;;;5009118;28;46190;-78
2023/08/28 21:01:36;;;;;;;;;5.00;3.00;;;;;;;;5016734;28;45229;-79
2023/08/28 21:04:02;;;;;;;;;2.00;2.00;;;;;;;;5010382;28;45242;-78
2023/08/28 21:06:27;;;;;;;;;2.67;2.67;;;;;;;;5016752;28;47206;-79
2023/08/28 21:08:52;;;;;;;;;2.33;1.67;;;;;;;;5016399;28;46345;-78
2023/08/28 21:11:17;;;;;;;;;3.33;3.33;;;;;;;;5017010;28;46319;-77
2023/08/28 21:13:43;;;;;;;;;2.67;2.67;;;;;;;;5014289;28;45390;-79
2023/08/28 21:16:08;;;;;;;;;2.67;2.33;;;;;;;;5017858;28;45388;-79
2023/08/28 21:18:33;;;;;;;;;1.67;1.67;;;;;;;;5011217;28;45492;-78
2023/08/28 21:21:02;;;;;;;;;3.67;2.00;;;;;;;;5020275;28;45268;-78
2023/08/28 21:23:27;;;;;;;;;4.00;2.00;;;;;;;;5006610;28;45551;-78
2023/08/28 21:26:03;;;;;;;;;3.67;3.67;;;;;;;;5011218;28;45353;-79
2023/08/28 21:28:29;;;;;;;;;2.33;1.67;;;;;;;;5011473;28;45948;-78
2023/08/28 21:30:59;;;;;;;;;2.00;2.00;;;;;;;;5016597;28;45337;-78
2023/08/28 21:33:24;;;;;;;;;1.67;1.67;;;;;;;;5010689;28;45276;-78
2023/08/28 21:35:49;;;;;;;;;2.67;1.67;;;;;;;;5014072;28;45274;-78
2023/08/28 21:38:15;;;;;;;;;1.67;1.67;;;;;;;;5014834;28;46231;-78
2023/08/28 21:40:40;;;;;;;;;2.67;2.67;;;;;;;;5016759;28;45272;-78
2023/08/28 21:43:05;;;;;;;;;1.67;1.67;;;;;;;;5016932;28;45571;-78
2023/08/28 21:45:32;;;;;;;;;2.67;2.67;;;;;;;;5017897;28;45455;-78
2023/08/28 21:47:57;;;;;;;;;2.67;2.67;;;;;;;;5015175;28;46781;-79